Date,TemperatureHighF,TemperatureAvgF,TemperatureLowF,DewpointHighF,DewpointAvgF,DewpointLowF,HumidityHigh,HumidityAvg,HumidityLow,PressureMaxIn,PressureMinIn,WindSpeedMaxMPH,WindSpeedAvgMPH,GustSpeedMaxMPH,PrecipitationSumIn
2013-1-2,9.3,6.5,4.5,2.7,-0.7,-2.5,77,72,62,30.55,30.48,19,7,19,0.00
2013-1-3,30.0,17.7,7.2,10.7,2.0,-4.4,61,50,39,30.53,30.29,24,14,24,0.00
2013-1-4,33.5,22.2,14.3,13.5,4.7,-1.7,53,47,40,30.33,30.14,29,10,29,0.00
2013-1-5,30.7,20.5,13.1,13.8,5.2,-2.5,60,51,43,30.45,30.19,24,11,24,0.00
2013-1-6,45.7,30.5,13.3,14.1,8.0,1.2,61,41,21,30.34,29.91,33,13,33,0.00
2013-1-8,32.4,27.7,23.0,20.0,17.9,15.7,75,66,60,30.14,30.08,29,10,29,0.00
2013-1-9,34.9,33.3,28.5,21.3,20.4,18.3,66,59,56,30.17,30.09,32,18,32,0.00
2013-1-13,9.2,3.0,-2.8,-2.4,-5.4,-10.0,75,68,56,30.47,30.38,16,7,16,0.00
2013-1-14,11.1,1.4,-9.6,-3.7,-9.6,-17.6,71,60,47,30.52,30.31,26,10,26,0.00
2013-1-15,11.7,7.9,4.7,-0.5,-4.5,-9.5,58,56,54,30.31,30.23,22,11,22,0.00
2013-1-18,49.4,42.4,28.8,8.3,6.1,3.5,35,23,16,30.12,29.94,35,18,35,0.00
2013-1-19,47.1,36.9,25.0,9.6,5.9,1.7,48,29,16,30.24,30.06,29,12,29,0.00
2013-1-20,34.1,25.5,8.6,16.5,10.7,3.1,83,55,32,30.42,30.04,23,7,23,0.00
2013-1-21,48.6,32.4,12.4,12.8,9.4,5.8,82,42,18,30.35,29.95,32,14,32,0.00
2013-1-22,52.0,38.2,26.0,7.2,3.6,-2.4,38,24,13,30.13,29.90,28,14,28,0.00
2013-1-23,57.8,44.1,30.4,8.2,1.6,-7.4,28,18,9,30.04,29.84,23,10,23,0.00
2013-1-24,52.5,43.1,30.9,28.7,19.8,5.8,79,42,23,30.01,29.76,46,17,46,0.00
2013-1-25,46.0,34.7,30.1,25.8,23.6,22.2,76,65,41,30.10,29.98,31,15,31,0.00
2013-2-7,32.5,27.6,23.9,7.6,6.0,4.1,47,40,31,30.03,29.89,10,4,10,0.00
2013-2-8,48.0,34.0,21.0,17.3,10.5,2.6,59,39,19,29.95,29.69,21,7,21,0.00
2013-2-9,29.8,23.6,19.1,18.9,16.0,13.0,83,73,56,29.80,29.72,11,2,11,0.00
2013-2-11,23.6,12.1,1.8,11.8,2.6,-7.7,77,66,54,30.35,30.17,20,9,20,0.00
2013-2-12,27.9,18.5,8.8,14.3,7.2,-2.1,72,61,51,30.30,30.07,27,11,27,0.00
2013-2-13,23.9,20.6,18.1,13.5,11.9,10.3,72,69,64,30.07,29.97,22,10,22,0.00
2013-2-23,38.5,31.0,25.3,26.4,21.5,16.3,92,70,41,29.74,29.57,27,13,27,0.00
2013-2-24,25.3,23.6,22.9,21.8,19.4,18.5,87,84,79,30.06,29.74,36,21,36,0.00
2013-2-25,29.8,25.9,21.4,14.5,12.2,9.8,63,56,51,30.01,29.80,28,12,28,0.00
2013-2-26,28.8,24.1,15.1,22.0,17.7,8.6,86,76,56,30.28,29.79,33,13,33,0.00
2013-2-27,29.3,20.4,12.1,15.5,10.7,6.2,84,66,49,30.41,30.26,24,13,24,0.00
2013-2-28,21.1,17.0,15.4,9.3,7.1,5.7,68,64,60,30.31,30.29,18,10,18,0.00
2013-3-2,53.5,44.1,31.0,27.6,25.1,20.9,74,49,30,30.26,29.76,30,12,30,0.00
2013-3-3,44.1,42.4,40.2,25.0,24.2,23.2,53,48,45,29.76,29.68,22,12,22,0.00
2013-3-5,29.1,15.4,6.5,11.7,6.0,-0.9,75,67,42,30.47,30.36,17,4,17,0.00
2013-3-10,25.3,25.1,25.1,18.6,18.6,18.5,76,76,76,30.25,30.25,13,6,13,0.00
2013-3-23,14.1,11.7,9.5,6.4,4.9,2.9,76,74,67,30.39,30.33,7,1,7,0.00
2013-3-24,21.3,14.4,8.1,11.4,7.3,2.6,81,73,51,30.43,30.26,22,8,22,0.00
2013-3-25,35.8,20.0,3.4,15.4,7.8,-1.7,83,62,30,30.49,30.16,21,7,21,0.00
2013-3-26,43.8,31.6,17.7,20.5,13.6,6.6,72,49,24,30.18,29.93,20,6,20,0.00
2013-3-27,54.7,37.5,22.1,29.5,22.7,15.5,81,58,31,30.07,29.88,18,3,18,0.00
2013-4-1,52.9,41.5,25.1,24.3,21.3,16.4,80,47,28,30.09,29.98,17,5,17,0.00
2013-4-2,55.7,41.1,24.2,27.6,19.7,13.6,78,46,21,30.10,29.94,18,5,18,0.00
2013-4-3,65.2,46.3,26.3,35.7,24.6,16.2,84,49,17,30.00,29.85,30,7,30,0.00
2013-4-4,67.6,49.2,29.0,39.1,27.6,17.3,92,52,15,30.01,29.64,25,5,25,0.00
2013-4-5,68.8,55.1,38.0,35.2,27.5,20.0,83,38,20,29.66,29.38,42,14,42,0.00
2013-4-6,49.2,38.0,33.8,33.5,28.0,24.5,85,68,40,29.78,29.65,20,10,20,0.00
2013-4-8,39.5,38.2,36.2,26.1,25.7,25.1,65,60,57,29.49,29.42,11,9,13,0.00
2013-4-9,11.2,10.2,8.8,6.2,3.9,1.5,80,75,69,30.52,30.44,27,13,27,0.00
2013-4-14,39.5,31.7,22.4,21.4,17.3,9.6,82,57,29,29.86,29.56,40,18,40,0.00
2013-4-15,27.9,22.8,17.0,18.0,14.2,10.4,82,70,55,30.13,29.80,20,8,20,0.00
2013-4-16,22.1,20.1,18.4,17.8,15.3,12.5,88,82,67,30.21,30.05,32,15,32,0.00
2013-4-17,21.8,18.8,15.4,15.8,13.3,10.0,84,79,74,30.38,30.22,25,13,25,0.00
2013-4-18,30.3,20.1,9.0,19.4,12.4,3.5,86,73,55,30.38,30.20,25,12,25,0.00
2013-4-19,48.8,35.7,21.6,30.5,22.9,12.1,74,60,40,30.22,29.76,27,11,27,0.00
2013-4-20,53.5,43.2,35.5,35.9,30.7,27.3,80,63,39,29.83,29.71,24,8,24,0.00
2013-4-22,19.9,18.1,16.2,12.9,12.2,11.0,83,77,70,30.50,30.45,9,4,9,0.00
2013-4-23,38.8,24.8,10.9,17.1,11.3,2.1,85,60,24,30.47,30.16,27,8,27,0.00
2013-4-24,41.1,28.6,21.0,20.9,16.0,12.2,74,60,39,30.23,30.11,29,10,29,0.00
2013-5-1,35.9,31.3,25.3,26.0,22.5,18.1,84,70,51,30.66,30.49,17,4,17,0.04
2013-5-2,50.4,36.3,22.2,26.1,17.8,11.2,86,53,22,30.68,30.32,31,9,31,0.00
2013-5-3,65.3,47.3,25.0,24.6,16.5,11.5,68,34,14,30.32,29.89,19,5,19,0.00
2013-5-4,57.0,46.2,33.7,25.2,21.1,17.1,63,38,24,30.09,29.89,24,8,24,0.00
2013-5-5,59.5,46.9,31.3,27.1,20.9,16.7,61,38,22,30.09,29.90,17,8,23,0.00
2013-5-6,67.4,52.4,36.8,29.9,26.9,22.8,70,40,20,29.92,29.72,13,5,16,0.00
2013-5-7,49.6,44.3,39.3,28.5,27.9,27.3,64,53,42,29.73,29.70,4,2,5,0.00
2013-5-15,56.7,55.8,55.1,51.8,50.6,49.2,87,83,78,29.69,29.60,18,6,18,0.16
2013-5-16,76.0,61.9,47.7,50.9,44.5,32.9,91,58,22,29.65,29.47,32,7,32,0.02
2013-5-17,80.9,63.8,50.1,51.6,41.3,13.6,90,54,9,29.59,29.41,31,7,31,0.00
2013-5-18,53.1,48.3,45.4,48.0,45.3,42.9,95,89,80,29.61,29.54,11,4,11,0.00
2013-6-15,76.1,69.0,58.7,44.7,39.6,32.6,55,35,21,29.86,29.67,17,6,17,0.00
2013-6-16,61.3,51.1,43.6,45.0,41.2,36.8,79,70,50,29.79,29.68,14,4,14,0.00
2013-7-1,84.9,73.4,53.8,50.1,45.1,38.7,73,40,21,29.91,29.82,21,6,21,0.00
2013-7-2,84.9,71.3,54.1,49.5,42.0,32.3,77,40,17,29.91,29.72,27,4,27,0.00
2013-7-3,91.2,72.7,52.5,43.4,36.4,23.8,61,31,10,29.74,29.52,25,5,25,0.00
2013-7-4,88.6,71.6,58.9,50.0,43.5,34.5,69,40,19,29.61,29.52,13,3,13,0.00
2013-7-5,87.2,84.1,80.1,53.1,49.1,42.0,38,30,24,29.50,29.44,25,11,25,0.06
2013-7-6,86.1,75.2,62.1,56.0,51.5,41.1,80,46,22,29.67,29.53,23,8,23,0.05
2013-7-7,89.5,73.9,60.1,57.6,49.0,31.3,88,50,13,29.72,29.55,24,6,24,0.00
2013-7-8,89.5,73.8,59.5,60.1,47.8,35.0,87,47,16,29.69,29.58,30,8,30,0.00
2013-7-9,90.7,71.8,53.8,51.5,45.3,31.4,83,46,13,29.80,29.66,26,7,26,0.00
2013-7-10,93.2,74.3,59.6,55.4,48.4,28.5,75,47,10,29.80,29.64,28,4,28,0.00
2013-7-12,88.0,78.4,65.8,56.3,49.8,44.5,67,39,24,29.60,29.45,30,6,30,0.00
2013-7-13,89.9,75.6,62.0,54.7,46.2,35.5,66,39,17,29.73,29.57,30,7,30,0.00
2013-7-14,81.1,68.7,59.5,58.0,52.1,46.1,83,57,36,29.95,29.70,29,10,29,0.00
2013-7-15,63.9,62.4,60.4,60.8,58.9,57.9,95,88,83,29.87,29.76,23,8,23,0.00
2013-7-24,89.0,75.8,58.1,59.3,51.8,44.1,74,46,23,29.78,29.65,33,8,33,0.04
2013-7-25,73.2,68.5,62.6,52.3,48.2,45.7,67,49,38,29.89,29.83,14,5,14,0.00
2013-7-26,76.5,61.3,52.5,53.9,50.4,43.3,90,69,32,29.95,29.79,20,5,20,0.00
2013-7-27,77.6,63.6,55.0,56.0,50.9,46.4,84,65,35,29.82,29.63,30,8,30,0.01
2013-7-28,81.8,66.5,50.2,55.0,51.4,44.2,89,63,28,29.68,29.48,33,6,35,0.17
2013-7-29,58.9,57.2,55.9,54.2,53.6,53.1,91,88,83,29.61,29.58,13,2,13,0.00
2013-7-30,76.3,67.6,58.1,53.3,50.5,42.6,74,56,31,29.89,29.79,19,6,19,0.00
2013-7-31,83.4,69.3,52.0,54.0,49.5,43.4,91,54,27,30.02,29.82,20,3,20,0.00
2013-8-1,86.1,71.8,55.9,56.7,51.0,43.8,89,52,27,29.83,29.48,30,6,30,0.00
2013-8-2,89.0,73.4,57.5,58.1,52.0,34.5,89,51,15,29.60,29.50,26,8,26,0.00
2013-8-3,81.6,68.5,59.0,63.5,57.9,48.4,98,72,42,29.82,29.57,33,9,33,0.00
2013-8-4,91.2,73.1,57.2,58.6,48.7,32.5,85,50,13,29.80,29.59,18,5,18,0.00
2013-8-5,88.8,74.3,57.8,60.2,47.8,28.5,94,48,13,29.73,29.49,25,5,25,0.00
2013-8-6,85.1,71.7,54.8,54.0,46.8,35.8,86,47,18,29.67,29.51,25,5,25,0.00
2013-8-8,62.6,60.2,57.3,49.6,47.5,45.2,71,63,57,29.87,29.80,25,5,25,0.06
2013-8-9,78.3,63.5,54.4,56.5,50.5,42.7,91,66,31,29.97,29.77,25,6,29,0.05
2013-8-10,82.2,66.9,51.4,54.3,47.2,38.0,90,55,24,29.94,29.75,20,3,20,0.00
2013-8-11,83.4,69.0,55.0,56.4,45.1,36.2,81,47,20,29.84,29.73,25,6,25,0.07
2013-8-13,65.8,61.9,58.6,50.8,48.2,43.5,75,61,46,29.92,29.84,19,6,19,0.02
2013-8-14,81.6,67.3,51.6,51.5,43.9,32.5,82,48,18,29.91,29.74,17,5,17,0.00
2013-8-15,85.5,69.3,53.3,54.3,44.0,31.6,91,49,15,29.83,29.74,20,5,20,0.00
2013-8-16,92.5,73.2,52.6,47.4,37.0,21.8,72,34,9,29.84,29.68,17,3,17,0.00
2013-8-17,65.6,62.0,58.9,44.3,42.0,37.1,57,48,35,29.70,29.66,6,1,6,0.00
2013-8-18,78.5,70.4,65.2,51.0,49.8,47.0,55,49,33,29.70,29.63,10,2,10,0.03
2013-8-19,94.5,75.5,58.6,49.3,39.0,20.3,69,34,8,29.74,29.53,24,6,24,0.00
2013-8-20,89.9,74.7,58.0,50.4,38.0,32.0,49,29,14,29.67,29.56,33,6,33,0.00
2013-8-21,82.6,73.8,63.7,52.2,48.6,43.8,62,43,27,29.77,29.59,29,4,29,0.00
2013-8-22,86.3,71.2,59.6,58.4,52.5,47.6,83,55,28,29.87,29.68,32,6,32,0.17
2013-8-23,87.8,72.7,57.6,57.7,51.6,43.3,88,53,23,29.74,29.50,35,6,35,0.06
2013-8-24,85.9,70.9,59.0,56.3,48.1,36.5,78,48,18,29.72,29.52,31,7,31,0.00
2013-8-25,83.6,72.7,58.3,51.1,44.7,41.4,63,38,26,29.79,29.67,25,7,25,0.00
2013-8-26,88.0,75.9,65.6,51.8,46.9,39.3,59,38,19,29.73,29.65,33,10,33,0.00
2013-8-27,89.7,74.5,63.7,60.1,50.4,40.9,73,46,21,29.77,29.62,38,6,38,0.01
2013-8-28,93.6,75.4,58.9,55.7,49.0,39.2,81,45,16,29.79,29.61,24,4,24,0.00
2013-8-29,90.5,76.7,60.1,52.2,43.4,37.9,56,33,16,29.84,29.62,26,4,26,0.00
2013-8-30,93.2,77.0,58.4,53.3,43.7,28.3,79,37,13,29.80,29.59,23,7,23,0.00
2013-8-31,84.3,71.5,59.5,45.5,39.2,34.3,48,32,17,29.85,29.59,21,8,22,0.00
2013-9-1,85.7,70.0,53.6,48.5,42.7,38.6,60,40,21,29.85,29.70,18,4,18,0.00
2013-9-2,89.0,70.7,56.0,59.3,50.9,43.1,79,54,22,29.77,29.62,22,4,22,0.11
2013-9-3,88.6,73.9,59.9,57.2,51.5,43.0,83,50,22,29.75,29.61,24,6,24,0.00
2013-9-4,93.8,76.6,58.7,52.5,47.8,40.1,72,42,17,29.83,29.70,18,4,18,0.00
2013-9-7,90.5,78.7,64.2,48.6,43.7,38.5,47,31,18,29.72,29.61,26,6,26,0.00
2013-9-8,86.5,69.8,59.3,60.1,52.1,41.6,80,56,24,29.70,29.52,30,5,30,0.05
2013-9-9,73.0,63.4,55.7,55.6,52.0,46.8,86,68,41,29.76,29.50,21,6,21,0.00
2013-9-10,66.8,60.3,49.9,52.4,47.1,42.4,93,64,43,29.93,29.76,14,3,14,0.00
2013-9-11,65.3,60.8,55.0,53.4,50.1,45.7,87,68,57,30.04,29.91,20,6,20,0.00
2013-9-12,64.8,59.4,53.2,56.6,52.3,49.6,92,78,62,30.09,29.90,17,5,17,0.11
2013-9-13,62.0,58.2,53.2,58.8,55.4,50.8,98,91,76,29.93,29.63,17,6,17,0.28
2013-9-14,53.3,51.7,50.4,52.4,51.0,49.7,98,97,96,29.68,29.66,4,0,4,0.01
2013-9-16,66.6,59.7,55.4,48.4,45.4,43.9,67,59,51,29.70,29.65,6,1,6,0.00
2013-9-17,84.0,69.2,53.5,50.9,43.9,35.1,72,43,23,29.69,29.35,27,9,27,0.00
2013-9-18,80.9,65.1,48.5,48.9,39.2,21.4,85,44,16,29.69,29.31,34,10,34,0.00
2013-9-19,63.9,51.0,39.5,38.3,32.8,25.8,83,53,24,30.05,29.68,21,4,21,0.00
2013-9-20,74.7,54.5,34.4,35.7,28.8,18.4,84,44,13,30.06,29.72,17,3,17,0.00
2013-9-21,83.6,64.4,42.6,32.6,27.1,20.4,58,28,11,29.72,29.37,29,7,29,0.00
2013-9-22,79.0,63.1,53.2,48.7,38.8,27.1,71,44,23,29.46,29.26,40,8,40,0.01
2013-9-23,56.9,55.0,50.7,44.2,42.8,41.6,74,64,57,29.37,29.26,18,8,18,0.00
2013-9-24,65.6,64.6,64.0,27.8,25.3,23.7,24,22,22,29.57,29.49,13,7,13,0.00
2013-9-27,32.8,32.5,32.4,31.5,31.0,30.9,95,94,94,29.82,29.78,2,1,5,0.07
2013-9-28,55.7,47.3,36.9,34.0,31.6,29.1,73,55,40,30.00,29.91,31,18,31,0.01
2013-10-1,56.6,54.5,51.3,39.7,36.5,32.7,61,51,43,29.74,29.64,4,0,4,0.00
2013-10-2,57.2,49.9,42.2,39.1,31.1,26.3,74,49,36,29.93,29.60,23,7,23,0.00
2013-10-3,51.1,42.3,32.8,41.5,35.2,30.6,94,77,56,29.93,29.63,24,9,24,0.36
2013-10-4,32.9,28.7,26.4,31.1,27.0,24.1,98,93,90,30.36,29.87,37,18,37,0.01
2013-10-5,38.9,30.9,21.4,25.7,23.1,17.6,94,74,56,30.36,30.20,33,16,33,0.02
2013-10-6,54.2,41.6,33.5,38.1,30.9,23.6,78,66,51,30.24,30.06,25,10,25,0.00
2013-10-7,68.8,53.6,35.6,34.0,30.0,24.6,82,45,20,30.06,29.54,32,11,32,0.00
2013-10-8,69.3,59.3,51.0,32.2,29.8,24.2,47,33,19,29.58,29.44,30,14,30,0.00
2013-10-12,42.8,38.0,35.0,34.5,33.4,32.0,90,83,71,30.06,30.01,4,0,4,0.00
2013-10-13,56.5,44.3,33.2,43.9,38.5,31.4,96,81,57,30.02,29.77,17,4,17,0.02
2013-10-14,44.9,35.8,30.0,42.7,31.8,24.9,96,85,75,30.30,29.72,35,14,35,0.16
2013-10-15,36.9,31.4,28.4,26.7,25.2,23.4,88,78,59,30.36,30.15,20,7,20,0.00
2013-10-16,49.8,37.3,25.8,28.7,23.3,16.4,81,60,30,30.16,29.93,28,10,28,0.00
2013-10-17,37.9,33.9,28.5,30.7,28.2,25.3,92,80,64,30.12,29.97,15,4,15,0.00
2013-10-18,42.5,34.3,28.5,28.7,24.2,19.0,92,69,40,30.23,29.99,33,12,33,0.03
2013-10-19,56.9,44.6,33.4,29.2,24.2,19.5,66,47,26,29.99,29.75,29,11,29,0.00
2013-10-20,44.2,36.8,30.6,35.7,32.1,26.9,94,84,53,30.10,29.74,28,8,28,0.27
2013-10-21,55.4,42.8,29.5,33.1,29.7,26.4,90,63,35,30.09,29.92,33,12,33,0.01
2013-10-22,62.1,48.1,36.2,34.0,31.6,29.5,77,55,30,30.08,29.90,24,9,24,0.00
2013-10-23,59.5,44.9,34.7,35.7,32.0,29.0,90,64,33,30.15,29.93,14,5,16,0.00
2013-10-24,53.9,41.1,28.7,38.4,33.5,26.1,94,76,46,30.24,30.10,10,1,10,0.00
2013-10-25,35.5,35.5,35.5,32.9,32.9,32.7,90,90,90,30.09,30.09,0,0,0,0.00
2013-10-29,32.4,32.1,31.8,31.9,31.5,31.0,98,98,97,29.93,29.85,13,3,13,0.01
2013-10-30,47.0,37.5,32.1,36.7,29.7,25.3,100,76,44,29.85,29.67,24,9,24,0.01
2013-10-31,52.2,38.8,25.6,29.8,25.2,20.2,85,61,32,29.82,29.65,35,13,35,0.00
2013-11-1,47.4,35.6,25.3,27.3,20.7,13.1,88,58,28,30.19,29.80,35,11,35,0.00
2013-11-2,62.7,43.5,23.2,28.2,19.9,14.6,78,46,16,30.16,29.42,36,10,36,0.00
2013-11-3,51.7,41.7,27.5,32.6,24.2,14.9,92,54,26,29.82,29.37,23,7,23,0.00
2013-11-4,34.7,26.9,14.3,25.3,18.3,8.4,91,71,45,30.06,29.82,16,4,16,0.08
2013-11-5,35.8,27.3,20.0,23.4,15.5,5.8,89,63,31,30.19,29.97,23,8,23,0.00
2013-11-6,46.7,33.5,22.2,21.9,15.8,10.0,84,51,27,30.36,30.06,32,9,32,0.00
2013-11-7,52.5,40.9,22.2,28.7,23.7,16.4,82,53,35,30.35,29.61,35,10,35,0.00
2013-11-8,53.5,44.6,29.0,29.0,21.7,17.6,68,42,27,29.93,29.54,38,12,38,0.00
2013-11-9,45.7,36.6,27.6,24.2,22.4,18.5,76,57,41,30.21,29.91,18,4,18,0.00
2013-11-10,62.9,43.7,24.4,28.7,24.5,20.1,85,51,24,30.18,29.94,24,8,24,0.00
2013-11-11,44.1,33.9,25.0,28.3,25.1,21.4,90,71,47,30.60,29.93,19,4,19,0.00
2013-11-12,59.8,37.7,18.6,32.3,24.1,15.2,92,64,28,30.64,30.13,18,3,18,0.00
2013-11-13,58.1,48.0,37.3,36.7,20.5,16.4,83,35,20,30.16,29.86,26,9,26,0.02
2013-11-16,41.5,37.1,28.5,22.8,19.8,15.4,64,49,41,29.37,29.20,46,19,46,0.00
2013-11-17,42.2,32.9,21.8,19.6,11.6,-3.8,70,44,16,30.01,29.34,36,17,36,0.00
2013-11-18,57.6,44.0,29.7,21.1,17.9,12.3,60,37,17,30.01,29.71,28,13,28,0.00
2013-11-19,56.2,47.8,40.6,30.0,23.8,15.2,64,41,27,29.71,29.44,38,18,38,0.00
2013-11-20,53.5,34.2,10.2,29.9,19.9,2.9,85,59,29,30.23,29.54,38,14,38,0.00
2013-11-21,12.8,8.7,4.5,6.1,2.2,-1.4,78,75,68,30.84,30.20,20,6,20,0.00
2013-11-22,25.0,11.9,3.4,10.3,-0.3,-7.0,74,58,45,30.92,30.73,20,7,20,0.00
2013-11-23,26.6,13.5,3.5,11.0,2.9,-5.6,79,63,47,30.88,30.45,16,4,16,0.00
2013-11-24,37.6,24.1,7.7,20.2,12.6,1.3,79,62,45,30.45,30.09,27,10,27,0.00
2013-11-25,40.9,31.3,22.2,24.1,20.1,17.3,82,64,42,30.38,30.19,16,7,16,0.00
2013-11-26,32.2,27.4,22.2,22.2,19.5,16.4,83,72,63,30.39,30.11,18,9,18,0.00
2013-11-27,53.2,38.2,26.6,23.3,20.4,17.7,70,51,27,30.14,29.91,28,8,28,0.00
2013-11-28,40.6,30.7,22.2,24.3,19.5,14.2,74,64,49,30.23,30.06,6,1,6,0.00
2013-11-29,53.1,43.0,34.0,22.8,20.7,17.6,59,42,26,30.12,29.95,24,11,24,0.00
2013-11-30,48.2,37.0,29.3,23.6,21.6,18.0,73,55,31,30.13,29.98,26,9,26,0.00
2013-12-1,47.3,38.6,28.8,27.1,24.4,20.7,73,57,42,30.06,29.62,36,14,36,0.00
2013-12-2,52.0,44.6,36.8,28.1,25.6,21.2,64,48,33,29.64,29.31,39,19,39,0.00
2013-12-3,38.8,12.9,2.2,28.2,6.0,-6.0,85,73,62,30.15,29.31,30,12,30,0.00
2013-12-4,3.0,-3.7,-14.8,-4.5,-12.4,-23.4,71,66,58,30.51,30.11,23,9,23,0.00
2013-12-5,1.3,-7.0,-15.3,-7.9,-15.1,-23.7,73,67,60,30.62,30.41,13,2,13,0.00
2013-12-6,-2.0,-9.6,-16.1,-9.7,-17.2,-23.8,71,68,63,30.75,30.51,6,0,6,0.00
2013-12-7,-4.1,-8.9,-15.1,-11.6,-16.3,-22.9,72,69,67,30.63,30.30,13,3,13,0.00
2013-12-8,7.7,1.8,-7.0,-4.1,-8.3,-14.8,76,62,53,30.38,30.17,21,6,21,0.00
2013-12-9,17.5,6.7,-10.0,4.3,-5.4,-18.6,75,58,41,30.37,30.19,38,14,38,0.00
2013-12-10,25.7,18.6,7.7,14.6,7.4,0.7,82,62,49,30.42,30.01,44,15,44,0.00
2013-12-11,32.1,18.8,-1.6,13.7,6.4,-7.9,81,60,42,30.49,30.22,31,10,31,0.00
2013-12-12,42.6,32.3,21.6,22.8,14.5,9.0,61,48,35,30.31,29.84,33,10,33,0.00
2013-12-13,38.0,29.3,24.8,18.0,12.8,10.0,57,50,42,29.99,29.82,21,12,21,0.00
2013-12-14,37.9,33.5,22.9,20.9,17.9,13.5,67,53,39,30.31,30.07,33,15,33,0.00
2013-12-15,46.4,37.8,27.6,21.1,18.5,14.8,67,47,32,30.12,29.92,38,16,38,0.00
2013-12-16,50.1,40.6,32.4,20.5,16.6,11.9,56,38,25,30.14,29.94,36,15,36,0.00
2013-12-17,52.9,41.5,29.4,18.1,15.4,11.8,57,36,21,30.22,29.83,34,15,34,0.00
2013-12-18,54.7,46.3,36.6,18.6,15.1,11.2,46,29,20,29.83,29.49,33,15,33,0.00
2013-12-19,37.6,16.3,2.8,22.4,8.5,-3.8,89,72,44,30.17,29.49,30,10,33,0.00
2013-12-20,22.4,13.3,2.6,10.8,4.6,-3.2,81,68,56,30.17,29.66,29,8,29,0.00
2013-12-21,24.8,21.5,13.3,18.0,14.0,7.9,84,73,57,30.06,29.57,25,10,25,0.00
2013-12-22,25.3,16.6,7.4,13.5,9.8,1.3,85,75,58,30.21,30.04,19,4,19,0.00
2013-12-23,38.8,28.5,5.4,30.1,19.7,-0.5,83,70,59,30.43,29.92,35,11,35,0.04
2013-12-24,38.5,27.5,12.9,29.8,20.8,4.8,90,76,64,30.37,29.79,32,11,32,0.00
2013-12-25,31.3,21.8,11.4,14.8,9.3,1.6,69,58,45,30.58,30.23,25,10,25,0.00
2013-12-26,39.3,30.7,24.1,22.5,16.4,9.9,69,55,42,30.33,30.14,24,10,24,0.00
2013-12-27,45.1,34.7,26.7,28.2,21.5,16.5,66,59,49,30.29,29.90,21,8,21,0.00
2013-12-28,40.1,24.6,3.0,25.4,14.2,-2.9,80,66,46,30.44,29.77,34,11,34,0.00
2013-12-29,15.1,6.0,-3.9,8.0,-0.1,-9.8,80,76,71,30.56,30.41,17,8,17,0.00
2013-12-30,34.3,28.0,19.1,20.9,16.0,10.3,69,61,53,30.29,29.95,28,10,28,0.00
2013-12-31,39.6,35.1,30.4,28.9,23.6,18.5,92,63,53,29.98,29.82,32,15,32,0.00
2014-1-1,30.6,23.4,14.6,28.6,19.6,8.4,93,85,73,30.39,29.91,20,7,20,0.02
2014-1-2,36.3,22.1,11.7,21.7,11.9,2.8,77,65,49,30.42,30.13,23,9,23,0.01